Terminal Aerodrome Forecast
Issued by NWS Louisville, KY

Home | Current Version | Previous Version | Text Only | Print | Product List | Glossary On
Versions: 1 2 3 4 5 6 7 8 9 10 11 12 13 14 15
783
FTUS43 KLMK 112029 AAA
TAFSDF
TAF AMD
KSDF 112029Z 1120/1224 01004KT P6SM FEW060 SCT250
     FM120000 VRB04KT P6SM OVC100
     FM121100 VRB03KT P6SM BKN040 PROB30 1212/1216 5SM -SN BR BKN025
     FM121600 28010G15KT P6SM BKN025=

USA.gov is the U.S. government's official web portal to all federal, state and local government web resources and services.